createdAt,value
2017-12-25T00:02:10.716Z,12.10
2017-12-25T00:04:38.190Z,12.00
2017-12-25T00:07:05.646Z,11.90
2017-12-25T00:09:33.081Z,11.60
2017-12-25T00:12:00.524Z,11.70
2017-12-25T00:14:27.981Z,12.00
2017-12-25T00:16:55.416Z,12.00
2017-12-25T00:19:22.850Z,11.30
2017-12-25T00:21:50.314Z,11.60
2017-12-25T00:24:17.736Z,11.90
2017-12-25T00:26:45.173Z,11.80
2017-12-25T00:29:12.600Z,12.40
2017-12-25T00:31:40.877Z,12.40
2017-12-25T00:34:08.300Z,12.40
2017-12-25T00:36:35.734Z,12.40
2017-12-25T00:39:03.169Z,12.40
2017-12-25T00:41:30.608Z,12.20
2017-12-25T00:43:58.057Z,12.30
2017-12-25T00:46:26.264Z,12.40
2017-12-25T00:48:53.693Z,12.30
2017-12-25T00:51:21.123Z,11.70
2017-12-25T00:53:48.556Z,11.70
2017-12-25T00:56:15.991Z,11.90
2017-12-25T00:58:43.434Z,11.90
2017-12-25T01:01:10.865Z,11.70
2017-12-25T01:03:39.069Z,11.50
2017-12-25T01:06:06.508Z,11.50
2017-12-25T01:08:34.708Z,12.10
2017-12-25T01:11:02.141Z,12.00
2017-12-25T01:13:30.349Z,11.90
2017-12-25T01:15:57.776Z,11.90
2017-12-25T01:18:25.985Z,12.00
2017-12-25T01:20:53.425Z,12.00
2017-12-25T01:23:20.860Z,12.00
2017-12-25T01:25:49.063Z,11.50
2017-12-25T01:28:16.490Z,11.50
2017-12-25T01:30:44.684Z,11.60
2017-12-25T01:33:12.140Z,11.60
2017-12-25T01:35:39.568Z,11.70
2017-12-25T01:38:07.778Z,11.40
2017-12-25T01:40:35.200Z,11.40
2017-12-25T01:43:03.409Z,11.50
2017-12-25T01:45:30.852Z,11.50
2017-12-25T01:47:59.056Z,11.80
2017-12-25T01:50:26.498Z,11.80
2017-12-25T01:52:53.921Z,11.80
2017-12-25T01:55:23.953Z,12.10
2017-12-25T01:58:12.985Z,11.80
2017-12-25T02:03:36.869Z,11.10
2017-12-25T02:09:12.011Z,11.90
2017-12-25T02:11:39.845Z,11.90
2017-12-25T02:14:08.045Z,11.80
2017-12-25T02:16:35.482Z,11.80
2017-12-25T02:19:02.924Z,12.20
2017-12-25T02:21:31.113Z,11.80
2017-12-25T02:23:58.551Z,11.80
2017-12-25T02:26:26.767Z,11.20
2017-12-25T02:28:54.193Z,11.20
2017-12-25T02:31:22.393Z,11.10
2017-12-25T02:33:49.842Z,11.00
2017-12-25T02:36:17.277Z,11.40
2017-12-25T02:38:45.509Z,11.60
2017-12-25T02:41:13.708Z,11.80
2017-12-25T02:43:41.164Z,11.80
2017-12-25T02:46:08.597Z,11.40
2017-12-25T02:48:36.042Z,11.40
2017-12-25T02:51:03.473Z,11.40
2017-12-25T02:53:30.947Z,11.50
2017-12-25T02:55:58.369Z,11.70
2017-12-25T02:58:26.568Z,11.30
2017-12-25T03:00:54.000Z,11.30
2017-12-25T03:03:22.205Z,11.60
2017-12-25T03:05:49.645Z,11.60
2017-12-25T03:08:17.850Z,11.80
2017-12-25T03:10:45.284Z,11.80
2017-12-25T03:13:12.742Z,11.70
2017-12-25T03:15:40.169Z,11.60
2017-12-25T03:18:07.612Z,11.90
2017-12-25T03:20:35.040Z,11.20
2017-12-25T03:23:02.482Z,11.60
2017-12-25T03:25:29.904Z,11.10
2017-12-25T03:27:58.107Z,11.50
2017-12-25T03:30:26.457Z,11.50
2017-12-25T03:32:53.907Z,11.60
2017-12-25T03:35:21.329Z,11.40
2017-12-25T03:37:48.789Z,11.00
2017-12-25T03:40:16.360Z,11.00
2017-12-25T03:42:43.797Z,11.20
2017-12-25T03:45:11.236Z,10.80
2017-12-25T03:47:38.676Z,10.70
2017-12-25T03:50:06.884Z,11.30
2017-12-25T03:52:34.305Z,11.20
2017-12-25T03:55:02.515Z,11.20
2017-12-25T03:57:29.941Z,11.20
2017-12-25T03:59:58.164Z,11.40
2017-12-25T04:02:25.579Z,11.40
2017-12-25T04:04:53.790Z,11.50
2017-12-25T04:07:21.220Z,11.50
2017-12-25T04:09:48.661Z,11.50
2017-12-25T04:12:17.153Z,11.00
2017-12-25T04:14:44.584Z,11.00
2017-12-25T04:17:12.017Z,11.20
2017-12-25T04:19:39.485Z,11.10
2017-12-25T04:22:06.903Z,11.20
2017-12-25T04:24:34.370Z,11.20
2017-12-25T04:27:01.807Z,11.50
2017-12-25T04:29:29.240Z,11.10
2017-12-25T04:31:57.436Z,11.20
2017-12-25T04:34:24.889Z,11.20
2017-12-25T04:36:52.317Z,11.70
2017-12-25T04:39:19.763Z,11.60
2017-12-25T04:41:47.193Z,11.40
2017-12-25T04:44:14.624Z,10.80
2017-12-25T04:46:42.052Z,11.10
2017-12-25T04:49:10.265Z,11.40
2017-12-25T04:51:37.689Z,11.30
2017-12-25T04:54:05.898Z,11.30
2017-12-25T04:56:33.359Z,11.30
2017-12-25T04:59:00.818Z,11.10
2017-12-25T05:01:28.241Z,10.90
2017-12-25T05:03:56.443Z,11.50
2017-12-25T05:06:23.889Z,11.40
2017-12-25T05:08:51.329Z,11.50
2017-12-25T05:11:19.528Z,11.50
2017-12-25T05:13:46.967Z,11.40
2017-12-25T05:16:15.166Z,11.60
2017-12-25T05:18:42.610Z,11.50
2017-12-25T05:21:10.054Z,11.50
2017-12-25T05:23:38.249Z,11.60
2017-12-25T05:26:05.680Z,11.60
2017-12-25T05:28:33.898Z,11.50
2017-12-25T05:31:01.339Z,11.50
2017-12-25T05:33:28.779Z,11.60
2017-12-25T05:35:56.985Z,11.80
2017-12-25T05:38:24.412Z,11.80
2017-12-25T05:40:51.861Z,11.60
2017-12-25T05:43:20.060Z,11.70
2017-12-25T05:45:47.497Z,11.70
2017-12-25T05:48:16.625Z,11.60
2017-12-25T05:50:44.058Z,11.50
2017-12-25T05:53:12.261Z,11.40
2017-12-25T05:55:39.706Z,11.40
2017-12-25T05:58:07.901Z,11.80
2017-12-25T06:00:35.349Z,11.80
2017-12-25T06:03:02.790Z,12.10
2017-12-25T06:05:30.233Z,12.10
2017-12-25T06:07:58.428Z,12.00
2017-12-25T06:10:25.879Z,12.00
2017-12-25T06:12:54.105Z,12.00
2017-12-25T06:15:22.315Z,11.90
2017-12-25T06:17:50.522Z,12.10
2017-12-25T06:20:17.952Z,12.00
2017-12-25T06:22:46.157Z,11.30
2017-12-25T06:25:13.588Z,11.30
2017-12-25T06:27:41.025Z,10.80
2017-12-25T06:30:09.229Z,11.30
2017-12-25T06:32:36.668Z,11.30
2017-12-25T06:35:04.875Z,11.80
2017-12-25T06:37:32.319Z,11.80
2017-12-25T06:39:59.745Z,11.90
2017-12-25T06:42:27.945Z,12.10
2017-12-25T06:44:55.378Z,12.10
2017-12-25T06:47:23.581Z,11.70
2017-12-25T06:49:51.005Z,11.70
2017-12-25T06:52:18.460Z,11.90
2017-12-25T06:54:45.885Z,12.30
2017-12-25T06:57:13.334Z,11.70
2017-12-25T06:59:40.760Z,11.90
2017-12-25T07:02:08.206Z,12.00
2017-12-25T07:04:36.403Z,12.30
2017-12-25T07:07:03.840Z,12.30
2017-12-25T07:09:32.032Z,11.90
2017-12-25T07:11:59.565Z,11.90
2017-12-25T07:14:27.152Z,12.10
2017-12-25T07:16:54.596Z,12.20
2017-12-25T07:19:22.802Z,11.90
2017-12-25T07:21:50.233Z,11.90
2017-12-25T07:24:17.666Z,12.10
2017-12-25T07:26:45.097Z,11.80
2017-12-25T07:29:12.528Z,11.90
2017-12-25T07:31:39.962Z,12.10
2017-12-25T07:34:07.399Z,12.10
2017-12-25T07:36:35.605Z,12.40
2017-12-25T07:39:03.041Z,12.40
2017-12-25T07:41:31.251Z,12.20
2017-12-25T07:43:58.725Z,12.20
2017-12-25T07:46:26.148Z,11.80
2017-12-25T07:48:53.580Z,12.30
2017-12-25T07:51:21.785Z,11.80
2017-12-25T07:53:49.219Z,11.70
2017-12-25T07:56:16.847Z,11.80
2017-12-25T07:58:44.285Z,12.00
2017-12-25T08:01:11.733Z,11.90
2017-12-25T08:03:39.189Z,11.50
2017-12-25T08:06:06.609Z,11.60
2017-12-25T08:08:34.809Z,12.20
2017-12-25T08:11:02.283Z,12.20
2017-12-25T08:13:29.719Z,12.10
2017-12-25T08:15:57.154Z,11.60
2017-12-25T08:18:24.600Z,12.00
2017-12-25T08:20:52.015Z,11.90
2017-12-25T08:23:19.476Z,12.10
2017-12-25T08:25:46.905Z,11.70
2017-12-25T08:28:14.909Z,11.80
2017-12-25T08:30:43.100Z,11.90
2017-12-25T08:33:10.542Z,11.90
2017-12-25T08:35:37.989Z,11.70
2017-12-25T08:38:06.209Z,12.00
2017-12-25T08:40:33.655Z,12.20
2017-12-25T08:43:01.697Z,12.20
2017-12-25T08:45:29.137Z,12.30
2017-12-25T08:47:56.565Z,12.30
2017-12-25T08:50:24.762Z,11.90
2017-12-25T08:52:52.202Z,11.90
2017-12-25T08:55:20.443Z,11.60
2017-12-25T08:57:47.830Z,11.60
2017-12-25T09:00:16.942Z,12.00
2017-12-25T09:02:44.381Z,12.00
2017-12-25T09:05:12.590Z,12.50
2017-12-25T09:07:40.018Z,12.40
2017-12-25T09:10:08.257Z,13.10
2017-12-25T09:12:35.674Z,13.10
2017-12-25T09:15:03.098Z,12.90
2017-12-25T09:17:31.301Z,12.20
2017-12-25T09:19:58.736Z,12.20
2017-12-25T09:22:26.949Z,12.10
2017-12-25T09:24:54.368Z,12.00
2017-12-25T09:27:22.568Z,11.90
2017-12-25T09:29:50.017Z,11.90
2017-12-25T09:32:18.220Z,12.20
2017-12-25T09:34:45.645Z,12.20
2017-12-25T09:37:13.865Z,11.60
2017-12-25T09:39:41.301Z,11.60
2017-12-25T09:42:08.731Z,11.80
2017-12-25T09:44:36.951Z,11.70
2017-12-25T09:47:04.402Z,11.70
2017-12-25T09:49:31.837Z,11.50
2017-12-25T09:51:59.285Z,11.50
2017-12-25T09:54:26.724Z,11.70
2017-12-25T09:56:54.920Z,11.70
2017-12-25T09:59:22.367Z,11.60
2017-12-25T10:01:50.574Z,12.40
2017-12-25T10:04:18.005Z,12.40
2017-12-25T10:06:45.436Z,12.70
2017-12-25T10:09:12.920Z,12.70
2017-12-25T10:11:41.156Z,12.50
2017-12-25T10:14:08.589Z,12.40
2017-12-25T10:16:36.013Z,12.60
2017-12-25T10:19:03.445Z,12.80
2017-12-25T10:21:30.885Z,12.60
2017-12-25T10:23:59.828Z,12.40
2017-12-25T10:26:27.261Z,12.40
2017-12-25T10:28:55.478Z,11.90
2017-12-25T10:31:23.366Z,11.90
2017-12-25T10:33:50.806Z,12.20
2017-12-25T10:36:18.258Z,12.30
2017-12-25T10:38:45.696Z,12.20
2017-12-25T10:41:13.126Z,12.40
2017-12-25T10:43:41.329Z,13.00
2017-12-25T10:46:08.757Z,12.90
2017-12-25T10:48:36.973Z,13.00
2017-12-25T10:51:04.435Z,12.90
2017-12-25T10:53:31.868Z,12.90
2017-12-25T10:56:00.057Z,12.30
2017-12-25T10:58:27.500Z,12.30
2017-12-25T11:00:55.685Z,12.40
2017-12-25T11:03:23.129Z,12.40
2017-12-25T11:05:51.317Z,12.10
2017-12-25T11:08:18.778Z,12.10
2017-12-25T11:10:46.206Z,11.90
2017-12-25T11:13:14.423Z,12.40
2017-12-25T11:15:41.852Z,12.40
2017-12-25T11:18:10.059Z,12.20
2017-12-25T11:20:37.507Z,12.20
2017-12-25T11:23:04.940Z,11.10
2017-12-25T11:25:33.137Z,12.30
2017-12-25T11:28:00.566Z,12.30
2017-12-25T11:30:28.878Z,12.60
2017-12-25T11:32:56.325Z,12.50
2017-12-25T11:35:23.754Z,12.90
2017-12-25T11:37:51.949Z,12.70
2017-12-25T11:40:19.384Z,12.70
2017-12-25T11:42:47.582Z,12.80
2017-12-25T11:45:15.021Z,12.80
2017-12-25T11:47:43.237Z,13.40
2017-12-25T11:50:10.695Z,13.40
2017-12-25T11:52:38.121Z,12.80
2017-12-25T11:55:06.312Z,13.10
2017-12-25T11:57:33.758Z,13.10
2017-12-25T12:00:01.197Z,13.00
2017-12-25T12:02:29.413Z,12.70
2017-12-25T12:04:56.868Z,12.70
2017-12-25T12:07:24.297Z,12.70
2017-12-25T12:09:52.509Z,12.80
2017-12-25T12:12:19.955Z,12.80
2017-12-25T12:14:47.385Z,12.50
2017-12-25T12:17:15.579Z,12.90
2017-12-25T12:19:43.017Z,12.90
2017-12-25T12:22:11.228Z,13.10
2017-12-25T12:24:38.663Z,13.00
2017-12-25T12:27:06.879Z,13.20
2017-12-25T12:29:34.314Z,13.30
2017-12-25T12:32:01.737Z,13.10
2017-12-25T12:34:29.950Z,13.00
2017-12-25T12:36:57.456Z,13.00
2017-12-25T12:39:24.833Z,12.80
2017-12-25T12:41:53.046Z,12.50
2017-12-25T12:44:20.496Z,12.50
2017-12-25T12:46:47.929Z,12.50
2017-12-25T12:49:15.389Z,12.40
2017-12-25T12:51:43.569Z,12.50
2017-12-25T12:54:11.000Z,12.50
2017-12-25T12:56:39.204Z,12.90
2017-12-25T12:59:06.653Z,12.90
2017-12-25T13:01:34.087Z,13.00
2017-12-25T13:04:01.524Z,12.80
2017-12-25T13:06:28.961Z,12.20
2017-12-25T13:08:56.429Z,12.60
2017-12-25T13:11:23.856Z,12.70
2017-12-25T13:13:51.292Z,12.80
2017-12-25T13:16:20.665Z,12.20
2017-12-25T13:18:48.093Z,12.20
2017-12-25T13:21:15.537Z,12.40
2017-12-25T13:23:42.952Z,12.80
2017-12-25T13:26:11.165Z,12.50
2017-12-25T13:28:38.597Z,12.40
2017-12-25T13:31:06.801Z,12.70
2017-12-25T13:33:34.229Z,12.70
2017-12-25T13:36:01.669Z,12.90
2017-12-25T13:38:29.899Z,12.50
2017-12-25T13:40:57.314Z,12.50
2017-12-25T13:43:25.510Z,12.10
2017-12-25T13:45:53.457Z,12.10
2017-12-25T13:48:21.665Z,12.00
2017-12-25T13:50:49.122Z,12.00
2017-12-25T13:53:17.464Z,12.30
2017-12-25T13:55:45.685Z,12.40
2017-12-25T13:58:13.121Z,12.40
2017-12-25T14:00:40.586Z,12.30
2017-12-25T14:03:08.754Z,12.10
2017-12-25T14:05:36.189Z,12.20
2017-12-25T14:08:04.412Z,12.20
2017-12-25T14:10:31.856Z,12.20
2017-12-25T14:12:59.311Z,11.90
2017-12-25T14:15:26.763Z,12.40
2017-12-25T14:17:54.221Z,12.50
2017-12-25T14:20:21.664Z,12.40
2017-12-25T14:22:49.093Z,12.30
2017-12-25T14:25:17.179Z,11.90
2017-12-25T14:27:45.389Z,12.40
2017-12-25T14:30:12.812Z,12.40
2017-12-25T14:32:41.031Z,12.40
2017-12-25T14:35:08.477Z,12.40
2017-12-25T14:37:35.914Z,12.20
2017-12-25T14:40:04.113Z,12.60
2017-12-25T14:42:31.835Z,12.60
2017-12-25T14:45:00.034Z,12.20
2017-12-25T14:47:27.469Z,12.20
2017-12-25T14:49:55.662Z,11.70
2017-12-25T14:52:23.117Z,11.70
2017-12-25T14:54:51.318Z,11.70
2017-12-25T14:57:18.758Z,11.70
2017-12-25T14:59:46.218Z,11.70
2017-12-25T15:02:13.655Z,11.90
2017-12-25T15:04:41.846Z,11.80
2017-12-25T15:07:09.291Z,11.70
2017-12-25T15:09:37.481Z,12.10
2017-12-25T15:12:06.084Z,12.30
2017-12-25T15:14:33.497Z,12.20
2017-12-25T15:17:01.767Z,12.00
2017-12-25T15:19:29.188Z,12.00
2017-12-25T15:21:56.629Z,11.70
2017-12-25T15:24:24.072Z,11.80
2017-12-25T15:26:51.500Z,12.00
2017-12-25T15:29:19.721Z,12.20
2017-12-25T15:31:47.157Z,12.10
2017-12-25T15:34:14.581Z,11.80
2017-12-25T15:36:42.025Z,11.90
2017-12-25T15:39:09.465Z,12.30
2017-12-25T15:41:37.682Z,12.20
2017-12-25T15:44:05.931Z,11.90
2017-12-25T15:46:33.367Z,11.90
2017-12-25T15:49:00.802Z,12.10
2017-12-25T15:51:28.270Z,12.30
2017-12-25T15:53:55.682Z,12.30
2017-12-25T15:56:23.900Z,11.90
2017-12-25T15:58:51.309Z,11.90
2017-12-25T16:01:19.232Z,12.10
2017-12-25T16:03:46.655Z,11.80
2017-12-25T16:06:14.853Z,12.30
2017-12-25T16:08:42.305Z,12.30
2017-12-25T16:11:09.745Z,12.40
2017-12-25T16:13:37.950Z,12.20
2017-12-25T16:16:05.404Z,12.20
2017-12-25T16:18:33.207Z,12.30
2017-12-25T16:21:00.653Z,12.10
2017-12-25T16:23:28.086Z,12.10
2017-12-25T16:25:55.562Z,11.90
2017-12-25T16:28:23.027Z,12.30
2017-12-25T16:30:50.447Z,12.40
2017-12-25T16:33:18.094Z,12.40
2017-12-25T16:35:45.533Z,12.20
2017-12-25T16:38:12.975Z,11.40
2017-12-25T16:40:40.400Z,11.80
2017-12-25T16:43:07.833Z,11.50
2017-12-25T16:45:35.272Z,11.60
2017-12-25T16:48:03.477Z,11.70
2017-12-25T16:50:30.918Z,11.70
2017-12-25T16:52:58.353Z,11.80
2017-12-25T16:55:26.548Z,11.80
2017-12-25T16:57:53.976Z,11.70
2017-12-25T17:00:21.421Z,11.90
2017-12-25T17:02:48.885Z,11.50
2017-12-25T17:05:16.313Z,11.20
2017-12-25T17:07:43.755Z,11.50
2017-12-25T17:10:11.193Z,11.60
2017-12-25T17:12:38.634Z,11.30
2017-12-25T17:15:06.861Z,11.60
2017-12-25T17:17:34.334Z,11.60
2017-12-25T17:20:01.770Z,11.20
2017-12-25T17:22:29.206Z,11.30
2017-12-25T17:24:56.641Z,11.40
2017-12-25T17:27:24.853Z,10.80
2017-12-25T17:29:52.296Z,10.80
2017-12-25T17:32:19.729Z,10.70
2017-12-25T17:34:47.152Z,11.10
2017-12-25T17:37:14.609Z,10.60
2017-12-25T17:39:42.057Z,10.80
2017-12-25T17:42:10.286Z,10.30
2017-12-25T17:44:38.499Z,10.40
2017-12-25T17:47:05.941Z,10.40
2017-12-25T17:49:33.374Z,10.90
2017-12-25T17:52:01.637Z,10.80
2017-12-25T17:54:29.101Z,10.80
2017-12-25T17:56:57.314Z,10.90
2017-12-25T17:59:24.783Z,10.80
2017-12-25T18:01:52.223Z,10.70
2017-12-25T18:04:19.669Z,10.70
2017-12-25T18:06:47.096Z,10.80
2017-12-25T18:09:14.529Z,11.20
2017-12-25T18:11:41.970Z,10.80
2017-12-25T18:14:09.404Z,10.60
2017-12-25T18:16:36.832Z,10.20
2017-12-25T18:19:05.041Z,10.30
2017-12-25T18:21:32.505Z,10.30
2017-12-25T18:23:59.929Z,10.10
2017-12-25T18:26:28.140Z,10.50
2017-12-25T18:28:55.585Z,10.50
2017-12-25T18:31:23.009Z,10.50
2017-12-25T18:33:51.216Z,10.20
2017-12-25T18:36:18.645Z,10.10
2017-12-25T18:38:46.883Z,10.30
2017-12-25T18:41:14.318Z,10.30
2017-12-25T18:43:41.774Z,10.40
2017-12-25T18:46:09.216Z,10.30
2017-12-25T18:48:36.655Z,10.80
2017-12-25T18:51:04.853Z,10.10
2017-12-25T18:53:32.326Z,10.10
2017-12-25T18:55:59.753Z,9.50
2017-12-25T18:58:27.187Z,9.60
2017-12-25T19:00:54.626Z,9.70
2017-12-25T19:03:22.082Z,10.00
2017-12-25T19:05:49.932Z,9.80
2017-12-25T19:08:19.066Z,9.40
2017-12-25T19:10:46.488Z,9.40
2017-12-25T19:13:13.978Z,9.40
2017-12-25T19:15:41.430Z,9.60
2017-12-25T19:18:08.869Z,9.60
2017-12-25T19:20:36.322Z,9.50
2017-12-25T19:23:03.758Z,9.90
2017-12-25T19:25:31.196Z,9.40
2017-12-25T19:27:58.633Z,9.20
2017-12-25T19:30:26.049Z,9.00
2017-12-25T19:32:53.498Z,9.20
2017-12-25T19:35:20.925Z,9.40
2017-12-25T19:37:48.369Z,9.60
2017-12-25T19:40:16.564Z,9.20
2017-12-25T19:42:43.986Z,9.20
2017-12-25T19:45:12.185Z,9.00
2017-12-25T19:47:39.612Z,8.90
2017-12-25T19:50:07.059Z,8.90
2017-12-25T19:52:34.514Z,8.70
2017-12-25T19:55:01.920Z,8.90
2017-12-25T19:57:29.375Z,9.20
2017-12-25T19:59:57.162Z,9.10
2017-12-25T20:02:24.585Z,9.20
2017-12-25T20:04:52.783Z,9.50
2017-12-25T20:07:21.011Z,9.50
2017-12-25T20:09:48.423Z,9.50
2017-12-25T20:12:15.849Z,9.30
2017-12-25T20:14:44.051Z,8.60
2017-12-25T20:17:11.476Z,8.60
2017-12-25T20:19:39.691Z,8.70
2017-12-25T20:22:07.109Z,8.60
2017-12-25T20:24:35.322Z,8.50
2017-12-25T20:27:02.750Z,8.40
2017-12-25T20:29:30.966Z,8.80
2017-12-25T20:31:58.390Z,8.80
2017-12-25T20:34:25.841Z,8.80
2017-12-25T20:36:54.050Z,8.70
2017-12-25T20:39:21.458Z,8.70
2017-12-25T20:41:49.662Z,8.70
2017-12-25T20:44:17.088Z,8.70
2017-12-25T20:46:45.277Z,8.70
2017-12-25T20:49:13.489Z,9.10
2017-12-25T20:51:40.917Z,9.10
2017-12-25T20:54:08.366Z,9.50
2017-12-25T20:56:37.895Z,9.40
2017-12-25T20:59:05.321Z,9.30
2017-12-25T21:01:33.536Z,9.00
2017-12-25T21:04:00.967Z,8.90
2017-12-25T21:06:28.408Z,8.70
2017-12-25T21:08:57.001Z,8.90
2017-12-25T21:11:25.200Z,9.30
2017-12-25T21:13:52.637Z,9.30
2017-12-25T21:16:20.845Z,9.30
2017-12-25T21:18:48.301Z,9.30
2017-12-25T21:21:15.751Z,9.40
2017-12-25T21:23:43.181Z,9.20
2017-12-25T21:26:11.390Z,8.90
2017-12-25T21:28:45.243Z,8.90
2017-12-25T21:31:12.684Z,8.80
2017-12-25T21:33:40.112Z,8.80
2017-12-25T21:36:07.552Z,8.80
2017-12-25T21:38:34.978Z,9.00
2017-12-25T21:41:02.429Z,8.70
2017-12-25T21:43:29.858Z,9.00
2017-12-25T21:45:57.302Z,9.30
2017-12-25T21:48:24.725Z,9.10
2017-12-25T21:50:52.923Z,8.50
2017-12-25T21:53:21.260Z,8.50
2017-12-25T21:55:48.706Z,8.60
2017-12-25T21:58:16.129Z,8.40
2017-12-25T22:00:43.586Z,8.60
2017-12-25T22:03:12.005Z,8.80
2017-12-25T22:05:39.454Z,9.10
2017-12-25T22:08:06.910Z,8.70
2017-12-25T22:10:34.340Z,9.10
2017-12-25T22:13:01.765Z,8.90
2017-12-25T22:15:29.953Z,8.70
2017-12-25T22:17:57.381Z,8.60
2017-12-25T22:20:25.594Z,9.10
2017-12-25T22:22:53.031Z,9.10
2017-12-25T22:25:20.472Z,9.10
2017-12-25T22:27:48.694Z,8.50
2017-12-25T22:30:16.132Z,8.50
2017-12-25T22:32:43.626Z,8.50
2017-12-25T22:35:11.064Z,8.50
2017-12-25T22:37:38.497Z,8.50
2017-12-25T22:40:05.940Z,9.10
2017-12-25T22:42:34.133Z,8.90
2017-12-25T22:45:01.578Z,8.80
2017-12-25T22:47:29.026Z,8.60
2017-12-25T22:49:57.237Z,8.60
2017-12-25T22:52:24.665Z,8.60
2017-12-25T22:54:52.869Z,8.80
2017-12-25T22:57:20.363Z,8.80
2017-12-25T22:59:47.773Z,8.50
2017-12-25T23:02:15.220Z,8.90
2017-12-25T23:04:42.656Z,8.90
2017-12-25T23:07:10.877Z,8.20
2017-12-25T23:09:38.285Z,8.20
2017-12-25T23:12:06.497Z,8.50
2017-12-25T23:14:33.930Z,8.50
2017-12-25T23:17:02.153Z,8.30
2017-12-25T23:19:29.598Z,8.30
2017-12-25T23:21:57.043Z,8.30
2017-12-25T23:24:25.417Z,8.30
2017-12-25T23:26:52.849Z,8.20
2017-12-25T23:29:21.066Z,8.40
2017-12-25T23:31:48.509Z,8.40
2017-12-25T23:34:15.930Z,8.30
2017-12-25T23:36:43.365Z,8.60
2017-12-25T23:39:11.552Z,8.60
2017-12-25T23:41:38.984Z,8.60
2017-12-25T23:44:06.409Z,8.80
2017-12-25T23:46:33.841Z,8.70
2017-12-25T23:49:02.035Z,8.20
2017-12-25T23:51:30.240Z,8.00
2017-12-25T23:53:57.696Z,8.00
2017-12-25T23:56:25.151Z,8.50
2017-12-25T23:58:52.607Z,8.40
